createdAt,value
2018-07-07T00:00:12.374Z,18.93
2018-07-07T00:01:12.378Z,18.96
2018-07-07T00:02:12.377Z,19.01
2018-07-07T00:03:12.371Z,18.99
2018-07-07T00:04:12.371Z,18.90
2018-07-07T00:05:12.379Z,18.84
2018-07-07T00:06:12.373Z,18.86
2018-07-07T00:07:12.373Z,18.87
2018-07-07T00:08:12.373Z,18.93
2018-07-07T00:09:12.365Z,18.87
2018-07-07T00:10:12.366Z,18.90
2018-07-07T00:11:12.365Z,18.84
2018-07-07T00:12:12.362Z,18.84
2018-07-07T00:13:12.370Z,18.84
2018-07-07T00:14:12.366Z,18.86
2018-07-07T00:15:12.365Z,18.91
2018-07-07T00:16:12.362Z,18.82
2018-07-07T00:17:12.357Z,18.84
2018-07-07T00:18:12.356Z,18.87
2018-07-07T00:19:12.360Z,18.91
2018-07-07T00:20:12.358Z,18.87
2018-07-07T00:21:12.354Z,18.82
2018-07-07T00:22:12.352Z,18.78
2018-07-07T00:23:12.350Z,18.82
2018-07-07T00:24:12.349Z,18.68
2018-07-07T00:25:12.353Z,18.66
2018-07-07T00:26:12.353Z,18.72
2018-07-07T00:27:12.359Z,18.75
2018-07-07T00:28:12.350Z,18.72
2018-07-07T00:29:12.343Z,18.78
2018-07-07T00:30:12.342Z,18.72
2018-07-07T00:31:12.344Z,18.71
2018-07-07T00:32:12.339Z,18.68
2018-07-07T00:33:12.344Z,18.69
2018-07-07T00:34:12.341Z,18.69
2018-07-07T00:35:12.340Z,18.66
2018-07-07T00:36:12.335Z,18.68
2018-07-07T00:37:12.338Z,18.69
2018-07-07T00:38:12.337Z,18.66
2018-07-07T00:39:12.340Z,18.68
2018-07-07T00:40:12.336Z,18.65
2018-07-07T00:41:12.329Z,18.71
2018-07-07T00:42:12.329Z,18.64
2018-07-07T00:43:12.328Z,18.62
2018-07-07T00:44:12.325Z,18.68
2018-07-07T00:45:12.331Z,18.66
2018-07-07T00:46:12.330Z,18.64
2018-07-07T00:47:12.328Z,18.65
2018-07-07T00:48:12.324Z,18.60
2018-07-07T00:49:12.319Z,18.64
2018-07-07T00:50:12.322Z,18.49
2018-07-07T00:51:12.321Z,18.56
2018-07-07T00:52:12.319Z,18.46
2018-07-07T00:53:12.315Z,18.57
2018-07-07T00:54:12.317Z,18.51
2018-07-07T00:55:12.312Z,18.50
2018-07-07T00:56:12.311Z,18.51
2018-07-07T00:57:12.314Z,18.46
2018-07-07T00:58:12.313Z,18.41
2018-07-07T00:59:12.313Z,18.46
2018-07-07T01:00:12.310Z,18.44
2018-07-07T01:01:12.305Z,18.50
2018-07-07T01:02:12.303Z,18.42
2018-07-07T01:03:12.301Z,18.39
2018-07-07T01:04:12.300Z,18.42
2018-07-07T01:05:12.302Z,18.44
2018-07-07T01:06:12.302Z,18.42
2018-07-07T01:07:12.295Z,18.31
2018-07-07T01:08:12.294Z,18.35
2018-07-07T01:09:12.298Z,18.38
2018-07-07T01:10:12.297Z,18.32
2018-07-07T01:11:12.296Z,18.32
2018-07-07T01:12:12.293Z,18.32
2018-07-07T01:13:12.286Z,18.32
2018-07-07T01:14:12.289Z,18.35
2018-07-07T01:15:12.285Z,18.35
2018-07-07T01:16:12.282Z,18.38
2018-07-07T01:17:12.286Z,18.31
2018-07-07T01:18:12.284Z,18.42
2018-07-07T01:19:12.289Z,18.29
2018-07-07T01:20:12.279Z,18.38
2018-07-07T01:21:12.275Z,18.35
2018-07-07T01:22:12.273Z,18.29
2018-07-07T01:23:12.277Z,18.23
2018-07-07T01:24:12.275Z,18.20
2018-07-07T01:25:12.270Z,18.23
2018-07-07T01:26:12.267Z,18.17
2018-07-07T01:27:12.267Z,18.19
2018-07-07T01:28:12.263Z,18.20
2018-07-07T01:29:12.267Z,18.19
2018-07-07T01:30:12.269Z,18.20
2018-07-07T01:31:12.265Z,18.19
2018-07-07T01:32:12.264Z,18.09
2018-07-07T01:33:12.256Z,18.10
2018-07-07T01:34:12.255Z,18.11
2018-07-07T01:35:12.253Z,18.10
2018-07-07T01:36:12.253Z,18.13
2018-07-07T01:37:12.256Z,18.04
2018-07-07T01:38:12.261Z,18.07
2018-07-07T01:39:12.247Z,18.01
2018-07-07T01:40:12.245Z,18.07
2018-07-07T01:41:12.248Z,18.07
2018-07-07T01:42:12.248Z,18.04
2018-07-07T01:43:12.245Z,18.02
2018-07-07T01:44:12.243Z,17.96
2018-07-07T01:45:12.238Z,18.05
2018-07-07T01:46:12.235Z,18.04
2018-07-07T01:47:12.234Z,17.89
2018-07-07T01:48:12.231Z,17.92
2018-07-07T01:49:12.235Z,17.94
2018-07-07T01:50:12.233Z,17.94
2018-07-07T01:51:12.232Z,18.01
2018-07-07T01:52:12.231Z,17.98
2018-07-07T01:53:12.223Z,17.94
2018-07-07T01:54:12.223Z,18.02
2018-07-07T01:55:12.225Z,18.04
2018-07-07T01:56:12.223Z,18.04
2018-07-07T01:57:12.217Z,18.17
2018-07-07T01:58:12.215Z,18.10
2018-07-07T01:59:12.214Z,18.13
2018-07-07T02:00:12.213Z,18.20
2018-07-07T02:01:12.216Z,18.14
2018-07-07T02:02:12.213Z,18.21
2018-07-07T02:03:12.217Z,18.23
2018-07-07T02:04:12.209Z,18.19
2018-07-07T02:05:12.204Z,18.23
2018-07-07T02:06:12.203Z,18.23
2018-07-07T02:07:12.202Z,18.29
2018-07-07T02:08:12.201Z,18.35
2018-07-07T02:09:12.203Z,18.34
2018-07-07T02:10:12.203Z,18.31
2018-07-07T02:11:12.197Z,18.35
2018-07-07T02:12:12.195Z,18.36
2018-07-07T02:13:12.198Z,18.39
2018-07-07T02:14:12.198Z,18.39
2018-07-07T02:15:12.199Z,18.32
2018-07-07T02:16:12.193Z,18.39
2018-07-07T02:17:12.186Z,18.46
2018-07-07T02:18:12.186Z,18.34
2018-07-07T02:19:12.185Z,18.46
2018-07-07T02:20:12.182Z,18.38
2018-07-07T02:21:12.186Z,18.35
2018-07-07T02:22:12.184Z,18.42
2018-07-07T02:23:12.183Z,18.49
2018-07-07T02:24:12.181Z,18.35
2018-07-07T02:25:12.176Z,18.49
2018-07-07T02:26:12.177Z,18.32
2018-07-07T02:27:12.179Z,18.35
2018-07-07T02:28:12.179Z,18.46
2018-07-07T02:29:12.171Z,18.39
2018-07-07T02:30:12.169Z,18.39
2018-07-07T02:31:12.167Z,18.46
2018-07-07T02:32:12.167Z,18.47
2018-07-07T02:33:12.169Z,18.46
2018-07-07T02:34:12.169Z,18.46
2018-07-07T02:35:12.167Z,18.46
2018-07-07T02:36:12.165Z,18.51
2018-07-07T02:37:12.159Z,18.46
2018-07-07T02:38:12.158Z,18.47
2018-07-07T02:39:12.156Z,18.50
2018-07-07T02:40:12.154Z,18.49
2018-07-07T02:41:12.158Z,18.51
2018-07-07T02:42:12.158Z,18.50
2018-07-07T02:43:12.152Z,18.50
2018-07-07T02:44:12.148Z,18.56
2018-07-07T02:45:12.153Z,18.59
2018-07-07T02:46:12.172Z,18.64
2018-07-07T02:47:12.150Z,18.65
2018-07-07T02:48:12.150Z,18.59
2018-07-07T02:49:12.142Z,18.62
2018-07-07T02:50:12.141Z,18.59
2018-07-07T02:51:12.140Z,18.71
2018-07-07T02:52:12.140Z,18.68
2018-07-07T02:53:12.143Z,18.59
2018-07-07T02:54:12.141Z,18.62
2018-07-07T02:55:12.144Z,18.60
2018-07-07T02:56:12.140Z,18.68
2018-07-07T02:57:12.132Z,18.71
2018-07-07T02:58:12.131Z,18.69
2018-07-07T02:59:12.136Z,18.71
2018-07-07T03:00:12.132Z,18.68
2018-07-07T03:01:12.127Z,18.71
2018-07-07T03:02:12.126Z,18.72
2018-07-07T03:03:12.151Z,18.84
2018-07-07T03:04:12.124Z,18.79
2018-07-07T03:05:12.130Z,18.76
2018-07-07T03:06:12.131Z,18.75
2018-07-07T03:07:12.126Z,18.82
2018-07-07T03:08:12.124Z,18.83
2018-07-07T03:09:12.118Z,18.83
2018-07-07T03:10:12.117Z,18.87
2018-07-07T03:11:12.116Z,18.82
2018-07-07T03:12:12.114Z,18.89
2018-07-07T03:13:12.117Z,18.93
2018-07-07T03:14:12.121Z,18.99
2018-07-07T03:15:12.112Z,18.94
2018-07-07T03:16:12.109Z,18.99
2018-07-07T03:17:12.112Z,19.01
2018-07-07T03:18:12.111Z,18.99
2018-07-07T03:19:12.112Z,18.99
2018-07-07T03:20:12.109Z,18.96
2018-07-07T03:21:12.104Z,18.99
2018-07-07T03:22:12.103Z,18.94
2018-07-07T03:23:12.102Z,18.97
2018-07-07T03:24:12.099Z,19.01
2018-07-07T03:25:12.104Z,18.96
2018-07-07T03:26:12.105Z,19.02
2018-07-07T03:27:12.101Z,19.01
2018-07-07T03:28:12.100Z,18.96
2018-07-07T03:29:12.095Z,18.99
2018-07-07T03:30:12.095Z,18.99
2018-07-07T03:31:12.097Z,18.99
2018-07-07T03:32:12.095Z,19.01
2018-07-07T03:33:12.089Z,18.96
2018-07-07T03:34:12.089Z,18.99
2018-07-07T03:35:12.092Z,19.02
2018-07-07T03:36:12.090Z,19.01
2018-07-07T03:37:12.089Z,18.99
2018-07-07T03:38:12.090Z,18.99
2018-07-07T03:39:12.088Z,18.99
2018-07-07T03:40:12.086Z,18.99
2018-07-07T03:41:12.081Z,19.07
2018-07-07T03:42:12.103Z,19.12
2018-07-07T03:43:12.078Z,18.96
2018-07-07T03:44:12.077Z,19.01
2018-07-07T03:45:12.081Z,19.05
2018-07-07T03:46:12.087Z,19.02
2018-07-07T03:47:12.075Z,19.01
2018-07-07T03:48:12.072Z,18.99
2018-07-07T03:49:12.124Z,19.01
2018-07-07T03:50:12.076Z,18.94
2018-07-07T03:51:12.073Z,18.94
2018-07-07T03:52:12.073Z,18.94
2018-07-07T03:53:12.067Z,18.93
2018-07-07T03:54:12.066Z,18.91
2018-07-07T03:55:12.065Z,19.10
2018-07-07T03:56:12.064Z,18.96
2018-07-07T03:57:12.066Z,18.93
2018-07-07T03:58:12.065Z,18.97
2018-07-07T03:59:12.066Z,18.99
2018-07-07T04:00:12.063Z,19.01
2018-07-07T04:01:12.057Z,18.99
2018-07-07T04:02:12.056Z,18.94
2018-07-07T04:03:12.062Z,18.97
2018-07-07T04:04:12.058Z,18.96
2018-07-07T04:05:12.053Z,18.89
2018-07-07T04:06:12.052Z,18.84
2018-07-07T04:07:12.059Z,18.91
2018-07-07T04:08:12.051Z,18.76
2018-07-07T04:09:12.052Z,18.82
2018-07-07T04:10:12.052Z,18.71
2018-07-07T04:11:12.051Z,18.68
2018-07-07T04:12:12.050Z,18.68
2018-07-07T04:13:12.042Z,18.66
2018-07-07T04:14:12.041Z,18.62
2018-07-07T04:15:12.040Z,18.59
2018-07-07T04:16:12.039Z,18.49
2018-07-07T04:17:12.043Z,18.56
2018-07-07T04:18:12.042Z,18.62
2018-07-07T04:19:12.036Z,18.57
2018-07-07T04:20:12.107Z,18.54
2018-07-07T04:21:12.038Z,18.50
2018-07-07T04:22:12.036Z,18.41
2018-07-07T04:23:12.034Z,18.46
2018-07-07T04:24:12.031Z,18.42
2018-07-07T04:25:12.026Z,18.51
2018-07-07T04:26:12.025Z,18.50
2018-07-07T04:27:12.023Z,18.47
2018-07-07T04:28:12.021Z,18.46
2018-07-07T04:29:12.024Z,18.44
2018-07-07T04:30:12.023Z,18.44
2018-07-07T04:31:12.026Z,18.49
2018-07-07T04:32:12.021Z,18.44
2018-07-07T04:33:12.016Z,18.39
2018-07-07T04:34:12.014Z,18.42
2018-07-07T04:39:12.045Z,18.44
2018-07-07T04:40:12.004Z,18.53
2018-07-07T04:41:12.008Z,18.38
2018-07-07T04:42:12.006Z,18.42
2018-07-07T04:43:12.001Z,18.44
2018-07-07T04:44:11.999Z,18.49
2018-07-07T04:45:12.003Z,18.44
2018-07-07T04:46:12.003Z,18.38
2018-07-07T04:47:11.999Z,18.41
2018-07-07T04:48:12.000Z,18.50
2018-07-07T04:49:11.992Z,18.49
2018-07-07T04:50:11.991Z,18.42
2018-07-07T04:51:11.995Z,18.51
2018-07-07T04:52:11.994Z,18.50
2018-07-07T04:53:11.987Z,18.50
2018-07-07T04:54:11.986Z,18.49
2018-07-07T04:55:11.985Z,18.56
2018-07-07T04:56:11.983Z,18.47
2018-07-07T04:57:11.988Z,18.60
2018-07-07T04:58:11.987Z,18.68
2018-07-07T04:59:11.988Z,18.59
2018-07-07T05:00:11.983Z,18.72
2018-07-07T05:01:11.977Z,18.79
2018-07-07T05:02:11.977Z,18.78
2018-07-07T05:03:11.975Z,18.86
2018-07-07T05:04:11.974Z,18.97
2018-07-07T05:05:11.977Z,18.97
2018-07-07T05:06:11.977Z,19.12
2018-07-07T05:07:11.972Z,19.15
2018-07-07T05:08:11.968Z,19.30
2018-07-07T05:09:11.974Z,19.32
2018-07-07T05:10:11.972Z,19.49
2018-07-07T05:11:11.973Z,19.60
2018-07-07T05:12:11.972Z,19.71
2018-07-07T05:13:11.965Z,19.76
2018-07-07T05:14:11.966Z,19.95
2018-07-07T05:15:11.963Z,20.13
2018-07-07T05:16:11.963Z,20.15
2018-07-07T05:17:12.025Z,20.33
2018-07-07T05:18:11.968Z,20.48
2018-07-07T05:19:11.970Z,20.76
2018-07-07T05:20:11.966Z,21.08
2018-07-07T05:21:11.961Z,21.24
2018-07-07T05:22:11.962Z,21.28
2018-07-07T05:23:11.965Z,21.53
2018-07-07T05:24:11.966Z,22.29
2018-07-07T05:25:11.962Z,22.91
2018-07-07T05:26:11.964Z,23.18
2018-07-07T05:27:11.964Z,23.75
2018-07-07T05:28:11.963Z,24.26
2018-07-07T05:29:11.968Z,24.74
2018-07-07T05:30:11.972Z,25.24
2018-07-07T05:31:11.972Z,25.56
2018-07-07T05:32:12.034Z,26.08
2018-07-07T05:33:11.970Z,26.13
2018-07-07T05:34:11.972Z,26.39
2018-07-07T05:35:11.974Z,26.53
2018-07-07T05:36:11.976Z,26.36
2018-07-07T05:37:11.989Z,26.79
2018-07-07T05:38:11.987Z,26.98
2018-07-07T05:39:11.986Z,27.03
2018-07-07T05:40:11.993Z,27.48
2018-07-07T05:41:11.998Z,27.06
2018-07-07T05:42:12.002Z,26.81
2018-07-07T05:43:12.006Z,26.90
2018-07-07T05:44:12.009Z,27.45
2018-07-07T05:45:12.009Z,27.65
2018-07-07T05:46:12.012Z,27.48
2018-07-07T05:47:12.018Z,27.77
2018-07-07T05:48:12.021Z,28.15
2018-07-07T05:49:12.029Z,28.67
2018-07-07T05:50:12.036Z,29.10
2018-07-07T05:51:12.041Z,29.55
2018-07-07T05:52:12.045Z,29.91
2018-07-07T05:53:12.044Z,29.91
2018-07-07T05:54:12.051Z,30.37
2018-07-07T05:55:12.061Z,30.51
2018-07-07T05:56:12.065Z,30.37
2018-07-07T05:57:12.066Z,29.92
2018-07-07T05:58:12.072Z,29.47
2018-07-07T05:59:12.077Z,28.80
2018-07-07T06:00:12.082Z,28.52
2018-07-07T06:01:12.093Z,28.18
2018-07-07T06:02:12.099Z,27.83
2018-07-07T06:03:12.106Z,27.80
2018-07-07T06:04:12.109Z,27.05
2018-07-07T06:05:12.111Z,26.81
2018-07-07T06:06:12.117Z,26.75
2018-07-07T06:07:12.123Z,27.16
2018-07-07T06:08:12.128Z,27.35
2018-07-07T06:09:12.139Z,27.68
2018-07-07T06:10:12.145Z,27.84
2018-07-07T06:11:12.147Z,28.27
2018-07-07T06:12:12.150Z,28.79
2018-07-07T06:13:12.162Z,29.44
2018-07-07T06:14:12.167Z,29.35
2018-07-07T06:15:12.173Z,29.33
2018-07-07T06:16:12.177Z,29.52
2018-07-07T06:17:12.179Z,30.13
2018-07-07T06:18:12.197Z,30.53
2018-07-07T06:19:12.193Z,30.85
2018-07-07T06:20:12.199Z,31.34
2018-07-07T06:21:12.208Z,31.78
2018-07-07T06:22:12.215Z,31.76
2018-07-07T06:23:12.223Z,32.07
2018-07-07T06:24:12.232Z,32.17
2018-07-07T06:25:12.233Z,32.59
2018-07-07T06:26:12.240Z,32.85
2018-07-07T06:27:12.253Z,33.43
2018-07-07T06:28:12.260Z,33.70
2018-07-07T06:29:12.263Z,34.06
2018-07-07T06:30:12.272Z,34.33
2018-07-07T06:31:12.285Z,34.01
2018-07-07T06:32:12.287Z,33.18
2018-07-07T06:33:12.301Z,33.47
2018-07-07T06:34:12.310Z,33.28
2018-07-07T06:35:12.370Z,33.57
2018-07-07T06:36:12.326Z,33.63
2018-07-07T06:37:12.346Z,33.59
2018-07-07T06:38:12.342Z,33.49
2018-07-07T06:39:12.352Z,33.26
2018-07-07T06:40:12.361Z,33.20
2018-07-07T06:41:12.375Z,33.47
2018-07-07T06:42:12.386Z,33.75
2018-07-07T06:43:12.391Z,34.00
2018-07-07T06:44:12.400Z,33.65
2018-07-07T06:45:12.416Z,33.24
2018-07-07T06:46:12.427Z,33.06
2018-07-07T06:47:12.437Z,33.47
2018-07-07T06:48:12.451Z,33.97
2018-07-07T06:49:12.453Z,34.03
2018-07-07T06:50:12.463Z,33.75
2018-07-07T06:51:12.474Z,33.28
2018-07-07T06:52:12.485Z,33.82
2018-07-07T06:53:12.501Z,34.14
2018-07-07T06:54:12.511Z,34.72
2018-07-07T06:55:12.523Z,34.83
2018-07-07T06:56:12.532Z,34.69
2018-07-07T06:57:12.541Z,34.38
2018-07-07T06:58:12.551Z,33.97
2018-07-07T06:59:12.568Z,33.84
2018-07-07T07:00:12.579Z,34.12
2018-07-07T07:01:12.587Z,34.53
2018-07-07T07:02:12.602Z,34.84
2018-07-07T07:03:12.611Z,34.53
2018-07-07T07:04:12.623Z,33.79
2018-07-07T07:05:12.637Z,33.34
2018-07-07T07:06:12.651Z,33.79
2018-07-07T07:07:12.663Z,34.21
2018-07-07T07:08:12.676Z,34.24
2018-07-07T07:09:12.691Z,33.97
2018-07-07T07:10:12.694Z,34.09
2018-07-07T07:11:12.708Z,34.33
2018-07-07T07:12:12.720Z,34.23
2018-07-07T07:13:12.736Z,34.36
2018-07-07T07:14:12.748Z,34.94
2018-07-07T07:15:12.756Z,35.34
2018-07-07T07:16:12.768Z,35.89
2018-07-07T07:17:12.785Z,36.35
2018-07-07T07:18:12.798Z,36.97
2018-07-07T07:19:12.813Z,35.50
2018-07-07T07:20:12.825Z,35.40
2018-07-07T07:21:12.834Z,35.20
2018-07-07T07:22:12.846Z,35.55
2018-07-07T07:23:12.860Z,36.25
2018-07-07T07:24:12.872Z,36.25
2018-07-07T07:25:12.891Z,36.43
2018-07-07T07:26:13.054Z,35.65
2018-07-07T07:27:12.918Z,35.80
2018-07-07T07:28:12.932Z,35.20
2018-07-07T07:29:12.940Z,34.78
2018-07-07T07:30:12.957Z,34.55
2018-07-07T07:31:12.972Z,34.84
2018-07-07T07:32:12.984Z,35.36
2018-07-07T07:33:12.994Z,35.93
2018-07-07T07:34:13.009Z,36.22
2018-07-07T07:35:13.027Z,36.43
2018-07-07T07:36:13.036Z,36.74
2018-07-07T07:37:13.058Z,37.21
2018-07-07T07:38:13.069Z,37.25
2018-07-07T07:39:13.083Z,37.60
2018-07-07T07:40:13.097Z,36.91
2018-07-07T07:41:13.107Z,36.11
2018-07-07T07:42:13.121Z,35.46
2018-07-07T07:43:13.158Z,34.93
2018-07-07T07:44:13.150Z,35.15
2018-07-07T07:45:13.169Z,35.92
2018-07-07T07:46:13.184Z,36.49
2018-07-07T07:47:13.194Z,36.83
2018-07-07T07:48:13.207Z,36.96
2018-07-07T07:49:13.227Z,37.28
2018-07-07T07:50:13.242Z,37.85
2018-07-07T07:51:13.260Z,37.78
2018-07-07T07:52:13.271Z,37.43
2018-07-07T07:53:13.282Z,37.85
2018-07-07T07:54:13.298Z,38.02
2018-07-07T07:55:13.312Z,37.38
2018-07-07T07:56:13.328Z,37.62
2018-07-07T07:57:13.350Z,38.18
2018-07-07T07:58:13.363Z,38.37
2018-07-07T07:59:13.379Z,37.90
2018-07-07T08:00:13.394Z,37.21
2018-07-07T08:01:13.404Z,37.38
2018-07-07T08:02:13.422Z,36.90
2018-07-07T08:03:13.442Z,37.72
2018-07-07T08:04:13.456Z,37.65
2018-07-07T08:05:13.466Z,38.02
2018-07-07T08:06:13.483Z,38.15
2018-07-07T08:07:13.498Z,38.40
2018-07-07T08:08:13.514Z,39.05
2018-07-07T08:09:13.535Z,38.58
2018-07-07T08:10:13.550Z,38.70
2018-07-07T08:11:13.566Z,39.12
2018-07-07T08:12:13.580Z,39.02
2018-07-07T08:13:13.597Z,37.09
2018-07-07T08:14:13.681Z,36.64
2018-07-07T08:15:13.627Z,36.16
2018-07-07T08:16:13.643Z,36.55
2018-07-07T08:17:13.663Z,36.90
2018-07-07T08:18:13.682Z,37.39
2018-07-07T08:19:13.695Z,38.06
2018-07-07T08:20:13.709Z,38.62
2018-07-07T08:21:13.733Z,38.38
2018-07-07T08:22:13.746Z,37.88
2018-07-07T08:23:13.769Z,36.35
2018-07-07T08:24:13.782Z,36.79
2018-07-07T08:25:13.793Z,36.78
2018-07-07T08:26:13.810Z,36.48
2018-07-07T08:27:13.826Z,36.86
2018-07-07T08:28:13.842Z,37.65
2018-07-07T08:29:13.864Z,37.31
2018-07-07T08:30:13.880Z,38.10
2018-07-07T08:31:13.900Z,38.26
2018-07-07T08:32:13.915Z,38.68
2018-07-07T08:33:13.928Z,37.87
2018-07-07T08:34:13.946Z,38.16
2018-07-07T08:35:13.967Z,37.96
2018-07-07T08:36:13.984Z,37.62
2018-07-07T08:37:13.996Z,38.58
2018-07-07T08:38:14.013Z,39.36
2018-07-07T08:39:14.031Z,40.28
2018-07-07T08:40:14.048Z,40.71
2018-07-07T08:41:14.070Z,41.51
2018-07-07T08:42:14.138Z,42.12
2018-07-07T08:43:14.106Z,42.43
2018-07-07T08:44:14.126Z,43.17
2018-07-07T08:45:14.139Z,43.70
2018-07-07T08:46:14.161Z,44.18
2018-07-07T08:47:14.177Z,43.34
2018-07-07T08:48:14.194Z,43.17
2018-07-07T08:49:14.228Z,42.17
2018-07-07T08:50:14.238Z,42.11
2018-07-07T08:51:14.254Z,41.16
2018-07-07T08:52:14.274Z,41.44
2018-07-07T08:53:14.298Z,40.51
2018-07-07T08:54:14.317Z,40.25
2018-07-07T08:55:14.338Z,39.38
2018-07-07T08:56:14.358Z,38.03
2018-07-07T08:57:14.372Z,38.28
2018-07-07T08:58:14.391Z,39.05
2018-07-07T08:59:14.411Z,39.91
2018-07-07T09:00:14.430Z,40.31
2018-07-07T09:01:14.456Z,40.85
2018-07-07T09:02:14.515Z,41.33
2018-07-07T09:03:14.496Z,42.02
2018-07-07T09:04:14.514Z,42.20
2018-07-07T09:05:14.531Z,41.95
2018-07-07T09:06:14.551Z,42.33
2018-07-07T09:07:14.576Z,42.65
2018-07-07T09:08:14.598Z,43.14
2018-07-07T09:09:14.611Z,43.44
2018-07-07T09:10:14.632Z,43.81
2018-07-07T09:11:14.653Z,43.98
2018-07-07T09:12:14.672Z,43.52
2018-07-07T09:13:14.699Z,43.77
2018-07-07T09:14:14.735Z,43.48
2018-07-07T09:15:14.741Z,43.79
2018-07-07T09:16:14.761Z,43.45
2018-07-07T09:17:14.778Z,43.87
2018-07-07T09:18:14.799Z,43.67
2018-07-07T09:19:14.824Z,43.71
2018-07-07T09:20:14.843Z,41.36
2018-07-07T09:21:14.899Z,38.95
2018-07-07T09:22:14.893Z,38.56
2018-07-07T09:23:14.908Z,38.82
2018-07-07T09:24:14.928Z,37.90
2018-07-07T09:25:14.955Z,37.54
2018-07-07T09:26:14.977Z,36.11
2018-07-07T09:27:14.997Z,35.50
2018-07-07T09:28:15.017Z,35.36
2018-07-07T09:29:15.033Z,35.92
2018-07-07T09:30:15.055Z,36.55
2018-07-07T09:31:15.074Z,36.22
2018-07-07T09:32:15.094Z,35.95
2018-07-07T09:33:15.118Z,34.81
2018-07-07T09:34:15.138Z,34.26
2018-07-07T09:35:15.157Z,34.84
2018-07-07T09:36:15.177Z,35.49
2018-07-07T09:37:15.191Z,35.80
2018-07-07T09:38:15.211Z,36.28
2018-07-07T09:39:15.235Z,37.13
2018-07-07T09:40:15.252Z,37.75
2018-07-07T09:41:15.269Z,38.34
2018-07-07T09:42:15.285Z,38.81
2018-07-07T09:43:15.305Z,39.59
2018-07-07T09:44:15.323Z,40.24
2018-07-07T09:45:15.347Z,40.63
2018-07-07T09:46:15.366Z,40.94
2018-07-07T09:47:15.386Z,41.62
2018-07-07T09:48:15.407Z,41.65
2018-07-07T09:49:15.420Z,42.29
2018-07-07T09:50:15.439Z,43.03
2018-07-07T09:51:15.460Z,43.40
2018-07-07T09:52:15.480Z,43.17
2018-07-07T09:53:15.503Z,43.40
2018-07-07T09:54:15.525Z,40.67
2018-07-07T09:55:15.540Z,40.00
2018-07-07T09:56:15.642Z,39.38
2018-07-07T09:57:15.631Z,38.87
2018-07-07T09:58:15.606Z,38.89
2018-07-07T09:59:15.626Z,39.59
2018-07-07T10:00:15.645Z,40.26
2018-07-07T10:01:15.662Z,39.07
2018-07-07T10:02:15.683Z,37.06
2018-07-07T10:03:15.706Z,37.15
2018-07-07T10:04:15.723Z,37.84
2018-07-07T10:05:15.747Z,37.65
2018-07-07T10:06:15.768Z,37.65
2018-07-07T10:07:15.788Z,36.38
2018-07-07T10:08:15.805Z,36.90
2018-07-07T10:09:15.820Z,37.43
2018-07-07T10:10:15.841Z,37.91
2018-07-07T10:11:15.864Z,38.37
2018-07-07T10:12:15.884Z,36.67
2018-07-07T10:13:15.899Z,36.38
2018-07-07T10:14:15.918Z,37.05
2018-07-07T10:15:15.938Z,37.85
2018-07-07T10:16:15.956Z,38.74
2018-07-07T10:17:15.980Z,38.59
2018-07-07T10:18:16.000Z,37.33
2018-07-07T10:19:16.020Z,37.77
2018-07-07T10:20:16.039Z,38.70
2018-07-07T10:21:16.053Z,39.25
2018-07-07T10:22:16.072Z,39.56
2018-07-07T10:23:16.091Z,39.01
2018-07-07T10:24:16.109Z,37.80
2018-07-07T10:25:16.133Z,38.37
2018-07-07T10:26:16.183Z,39.24
2018-07-07T10:27:16.168Z,39.80
2018-07-07T10:28:16.187Z,40.54
2018-07-07T10:29:16.211Z,40.26
2018-07-07T10:30:16.233Z,40.79
2018-07-07T10:31:16.250Z,41.33
2018-07-07T10:32:16.269Z,41.73
2018-07-07T10:33:16.285Z,42.26
2018-07-07T10:34:16.304Z,42.52
2018-07-07T10:35:16.325Z,42.55
2018-07-07T10:36:16.344Z,42.77
2018-07-07T10:37:16.371Z,43.10
2018-07-07T10:38:16.410Z,43.37
2018-07-07T10:39:16.411Z,43.02
2018-07-07T10:40:16.430Z,41.93
2018-07-07T10:41:16.448Z,41.67
2018-07-07T10:42:16.469Z,40.91
2018-07-07T10:43:16.494Z,41.10
2018-07-07T10:44:16.514Z,39.31
2018-07-07T10:45:16.530Z,37.24
2018-07-07T10:46:16.557Z,37.06
2018-07-07T10:47:16.583Z,37.46
2018-07-07T10:48:16.592Z,38.19
2018-07-07T10:49:16.617Z,39.00
2018-07-07T10:50:16.637Z,39.82
2018-07-07T10:51:16.658Z,40.09
2018-07-07T10:52:16.676Z,40.78
2018-07-07T10:53:16.694Z,41.42
2018-07-07T10:54:16.712Z,42.04
2018-07-07T10:55:16.731Z,42.62
2018-07-07T10:56:16.750Z,42.84
2018-07-07T10:57:16.775Z,42.50
2018-07-07T10:58:16.796Z,42.01
2018-07-07T10:59:16.811Z,41.51
2018-07-07T11:00:16.832Z,40.57
2018-07-07T11:01:16.856Z,39.09
2018-07-07T11:02:16.877Z,39.39
2018-07-07T11:03:16.899Z,39.73
2018-07-07T11:04:17.014Z,39.61
2018-07-07T11:05:16.932Z,38.74
2018-07-07T11:06:16.953Z,38.87
2018-07-07T11:07:16.973Z,39.14
2018-07-07T11:08:16.996Z,39.76
2018-07-07T11:09:17.016Z,39.72
2018-07-07T11:10:17.036Z,39.47
2018-07-07T11:11:17.056Z,39.25
2018-07-07T11:12:17.077Z,39.41
2018-07-07T11:13:17.091Z,38.77
2018-07-07T11:14:17.112Z,38.04
2018-07-07T11:15:17.138Z,38.41
2018-07-07T11:16:17.155Z,38.15
2018-07-07T11:17:17.170Z,37.81
2018-07-07T11:18:17.191Z,37.63
2018-07-07T11:19:17.209Z,37.84
2018-07-07T11:20:17.227Z,38.07
2018-07-07T11:21:17.250Z,38.07
2018-07-07T11:22:17.271Z,36.43
2018-07-07T11:23:17.289Z,34.71
2018-07-07T11:24:17.307Z,34.34
2018-07-07T11:25:17.322Z,33.99
2018-07-07T11:26:17.340Z,33.31
2018-07-07T11:27:17.359Z,33.17
2018-07-07T11:28:17.374Z,33.02
2018-07-07T11:29:17.396Z,33.00
2018-07-07T11:30:17.414Z,33.38
2018-07-07T11:31:17.424Z,33.57
2018-07-07T11:32:17.439Z,33.45
2018-07-07T11:33:17.459Z,33.35
2018-07-07T11:34:17.475Z,33.56
2018-07-07T11:35:17.490Z,33.63
2018-07-07T11:36:17.564Z,33.63
2018-07-07T11:37:17.512Z,33.66
2018-07-07T11:38:17.526Z,33.72
2018-07-07T11:39:17.540Z,33.75
2018-07-07T11:40:17.552Z,33.41
2018-07-07T11:41:17.570Z,33.12
2018-07-07T11:42:17.621Z,32.73
2018-07-07T11:43:17.597Z,32.35
2018-07-07T11:44:17.650Z,31.90
2018-07-07T11:45:17.613Z,31.95
2018-07-07T11:46:17.626Z,32.02
2018-07-07T11:47:17.644Z,32.03
2018-07-07T11:48:17.652Z,31.75
2018-07-07T11:49:17.658Z,31.59
2018-07-07T11:50:17.698Z,31.56
2018-07-07T11:51:17.679Z,31.72
2018-07-07T11:52:17.688Z,31.47
2018-07-07T11:53:17.702Z,31.19
2018-07-07T11:54:17.711Z,31.18
2018-07-07T11:55:17.721Z,31.13
2018-07-07T11:56:17.729Z,31.16
2018-07-07T11:57:17.757Z,31.28
2018-07-07T11:58:17.744Z,31.31
2018-07-07T11:59:17.752Z,31.37
2018-07-07T12:00:17.760Z,31.19
2018-07-07T12:01:17.773Z,31.15
2018-07-07T12:02:17.783Z,31.23
2018-07-07T12:03:17.786Z,31.18
2018-07-07T12:04:17.795Z,31.09
2018-07-07T12:05:17.807Z,31.07
2018-07-07T12:06:17.814Z,31.04
2018-07-07T12:07:17.821Z,30.97
2018-07-07T12:08:17.849Z,30.91
2018-07-07T12:09:17.832Z,30.78
2018-07-07T12:10:17.839Z,30.72
2018-07-07T12:11:17.869Z,30.68
2018-07-07T12:12:17.854Z,30.88
2018-07-07T12:13:17.866Z,30.85
2018-07-07T12:14:17.874Z,30.72
2018-07-07T12:15:17.881Z,30.68
2018-07-07T12:16:17.887Z,30.63
2018-07-07T12:17:17.893Z,30.78
2018-07-07T12:18:17.898Z,30.68
2018-07-07T12:19:17.910Z,30.48
2018-07-07T12:20:17.917Z,30.40
2018-07-07T12:21:17.918Z,30.22
2018-07-07T12:22:17.927Z,30.13
2018-07-07T12:23:17.933Z,30.01
2018-07-07T12:24:17.939Z,29.99
2018-07-07T12:25:17.951Z,29.79
2018-07-07T12:26:17.957Z,29.74
2018-07-07T12:27:17.965Z,29.88
2018-07-07T12:28:17.972Z,29.91
2018-07-07T12:29:17.974Z,29.88
2018-07-07T12:30:17.981Z,29.89
2018-07-07T12:31:17.990Z,30.03
2018-07-07T12:32:17.993Z,29.95
2018-07-07T12:33:18.003Z,30.03
2018-07-07T12:34:18.010Z,30.11
2018-07-07T12:35:18.013Z,29.99
2018-07-07T12:36:18.020Z,29.82
2018-07-07T12:37:18.031Z,29.66
2018-07-07T12:38:18.035Z,29.70
2018-07-07T12:39:18.042Z,29.67
2018-07-07T12:40:18.052Z,29.89
2018-07-07T12:41:18.051Z,30.07
2018-07-07T12:42:18.056Z,30.30
2018-07-07T12:43:18.062Z,30.30
2018-07-07T12:44:18.085Z,30.29
2018-07-07T12:45:18.079Z,30.21
2018-07-07T12:46:18.086Z,30.23
2018-07-07T12:47:18.092Z,30.15
2018-07-07T12:48:18.096Z,30.03
2018-07-07T12:49:18.099Z,30.29
2018-07-07T12:50:18.110Z,30.32
2018-07-07T12:51:18.115Z,30.37
2018-07-07T12:52:18.122Z,30.37
2018-07-07T12:53:18.123Z,30.30
2018-07-07T12:54:18.131Z,30.34
2018-07-07T12:55:18.136Z,30.23
2018-07-07T12:56:18.141Z,30.37